FYKT

Keetmanshoop Airport

Keetmanshoop, Namibia
TAF FYKT 191600Z 1918/2018 29014KT CAVOK BECMG 1922/2000 20004KT
Issued Valid From Valid To
Nov-19 @ 16:00 UTC
(6 hours ago)
Nov-19 @ 18:00 UTC
(4 hours ago)
Nov-20 @ 18:00 UTC
(in 20 hours)
Expired Click to View Nov-19 @ 18:00 to Nov-19 @ 22:00
TAF FYKT 191600Z 1918/2018 29014KT CAVOK
Wind Visibility Clouds Conditions
290° at 14 knots 10,000+ meters
  • No significant clouds
Becoming Nov-19 @ 22:00 to Nov-20 @ 18:00
BECMG 1922/2000 20004KT
Wind Visibility Clouds Conditions
200° at 4 knots 10,000+ meters
  • No significant clouds
TAF FYKT 191600Z 1918/2018 29014KT CAVOK BECMG 1922/2000 20004KT
Issued Nov-19 @ 16:00 UTC
(6 hours ago)
Valid From Nov-19 @ 18:00 UTC
(4 hours ago)
Valid To Nov-20 @ 18:00 UTC
(in 20 hours)
Nov-19 @ 18:00 - Nov-19 @ 22:00
Wind Visibility
290° at 14 knots 10,000+ meters
Clouds
  • No significant clouds
Conditions
Becoming Nov-19 @ 22:00 - Nov-20 @ 18:00
Wind Visibility
200° at 4 knots 10,000+ meters
Clouds
  • No significant clouds
Conditions